sensor_id;sensor_type;location;lat;lon;timestamp;temperature;humidity
3919;DHT22;1974;48.670;8.994;2023-06-22T00:00:00;21.10;99.90
3919;DHT22;1974;48.670;8.994;2023-06-22T00:02:33;21.10;99.90
3919;DHT22;1974;48.670;8.994;2023-06-22T00:05:00;21.10;99.90
3919;DHT22;1974;48.670;8.994;2023-06-22T00:07:27;21.00;99.90
3919;DHT22;1974;48.670;8.994;2023-06-22T00:09:54;21.00;99.90
3919;DHT22;1974;48.670;8.994;2023-06-22T00:12:22;21.00;99.90
3919;DHT22;1974;48.670;8.994;2023-06-22T00:14:48;21.00;99.90
3919;DHT22;1974;48.670;8.994;2023-06-22T00:17:15;20.90;99.90
3919;DHT22;1974;48.670;8.994;2023-06-22T00:19:42;21.00;99.90
3919;DHT22;1974;48.670;8.994;2023-06-22T00:22:09;20.90;99.90
3919;DHT22;1974;48.670;8.994;2023-06-22T00:24:35;20.90;99.90
3919;DHT22;1974;48.670;8.994;2023-06-22T00:27:02;20.90;99.90
3919;DHT22;1974;48.670;8.994;2023-06-22T00:29:32;20.90;99.90
3919;DHT22;1974;48.670;8.994;2023-06-22T00:31:58;20.90;99.90
3919;DHT22;1974;48.670;8.994;2023-06-22T00:34:25;20.80;99.90
3919;DHT22;1974;48.670;8.994;2023-06-22T00:36:52;20.80;99.90
3919;DHT22;1974;48.670;8.994;2023-06-22T00:39:18;20.80;99.90
3919;DHT22;1974;48.670;8.994;2023-06-22T00:41:45;20.80;99.90
3919;DHT22;1974;48.670;8.994;2023-06-22T00:44:12;20.80;99.90
3919;DHT22;1974;48.670;8.994;2023-06-22T00:46:40;20.80;99.90
3919;DHT22;1974;48.670;8.994;2023-06-22T00:49:07;20.80;99.90
3919;DHT22;1974;48.670;8.994;2023-06-22T00:51:33;20.80;99.90
3919;DHT22;1974;48.670;8.994;2023-06-22T00:54:04;20.80;99.90
3919;DHT22;1974;48.670;8.994;2023-06-22T00:56:32;20.70;99.90
3919;DHT22;1974;48.670;8.994;2023-06-22T00:59:01;20.70;99.90
3919;DHT22;1974;48.670;8.994;2023-06-22T01:01:29;20.70;99.90
3919;DHT22;1974;48.670;8.994;2023-06-22T01:03:57;20.70;99.90
3919;DHT22;1974;48.670;8.994;2023-06-22T01:06:31;20.70;99.90
3919;DHT22;1974;48.670;8.994;2023-06-22T01:09:10;20.60;99.90
3919;DHT22;1974;48.670;8.994;2023-06-22T01:11:44;20.60;99.90
3919;DHT22;1974;48.670;8.994;2023-06-22T01:14:15;20.60;99.90
3919;DHT22;1974;48.670;8.994;2023-06-22T01:16:46;20.50;99.90
3919;DHT22;1974;48.670;8.994;2023-06-22T01:19:29;20.50;99.90
3919;DHT22;1974;48.670;8.994;2023-06-22T01:22:01;20.50;99.90
3919;DHT22;1974;48.670;8.994;2023-06-22T01:24:32;20.40;99.90
3919;DHT22;1974;48.670;8.994;2023-06-22T01:27:12;20.40;99.90
3919;DHT22;1974;48.670;8.994;2023-06-22T01:29:41;20.30;99.90
3919;DHT22;1974;48.670;8.994;2023-06-22T01:32:10;20.30;99.90
3919;DHT22;1974;48.670;8.994;2023-06-22T01:34:38;20.30;99.90
3919;DHT22;1974;48.670;8.994;2023-06-22T01:37:06;20.30;99.90
3919;DHT22;1974;48.670;8.994;2023-06-22T01:39:34;20.30;99.90
3919;DHT22;1974;48.670;8.994;2023-06-22T01:42:03;20.30;99.90
3919;DHT22;1974;48.670;8.994;2023-06-22T01:44:31;20.30;99.90
3919;DHT22;1974;48.670;8.994;2023-06-22T01:46:59;20.30;99.90
3919;DHT22;1974;48.670;8.994;2023-06-22T01:49:26;20.30;99.90
3919;DHT22;1974;48.670;8.994;2023-06-22T01:51:54;20.30;99.90
3919;DHT22;1974;48.670;8.994;2023-06-22T01:54:20;20.30;99.90
3919;DHT22;1974;48.670;8.994;2023-06-22T01:56:47;20.30;99.90
3919;DHT22;1974;48.670;8.994;2023-06-22T01:59:20;20.30;99.90
3919;DHT22;1974;48.670;8.994;2023-06-22T02:01:54;20.30;99.90
3919;DHT22;1974;48.670;8.994;2023-06-22T02:04:27;20.30;99.90
3919;DHT22;1974;48.670;8.994;2023-06-22T02:06:57;20.30;99.90
3919;DHT22;1974;48.670;8.994;2023-06-22T02:09:26;20.30;99.90
3919;DHT22;1974;48.670;8.994;2023-06-22T02:11:56;20.30;99.90
3919;DHT22;1974;48.670;8.994;2023-06-22T02:14:24;20.30;99.90
3919;DHT22;1974;48.670;8.994;2023-06-22T02:16:51;20.30;99.90
3919;DHT22;1974;48.670;8.994;2023-06-22T02:19:22;20.30;99.90
3919;DHT22;1974;48.670;8.994;2023-06-22T02:21:51;20.30;99.90
3919;DHT22;1974;48.670;8.994;2023-06-22T02:24:18;20.20;99.90
3919;DHT22;1974;48.670;8.994;2023-06-22T02:26:45;20.20;99.90
3919;DHT22;1974;48.670;8.994;2023-06-22T02:29:12;20.20;99.90
3919;DHT22;1974;48.670;8.994;2023-06-22T02:31:38;20.10;99.90
3919;DHT22;1974;48.670;8.994;2023-06-22T02:34:05;20.10;99.90
3919;DHT22;1974;48.670;8.994;2023-06-22T02:36:32;20.10;99.90
3919;DHT22;1974;48.670;8.994;2023-06-22T02:39:00;20.10;99.90
3919;DHT22;1974;48.670;8.994;2023-06-22T02:41:29;20.00;99.90
3919;DHT22;1974;48.670;8.994;2023-06-22T02:43:56;20.00;99.90
3919;DHT22;1974;48.670;8.994;2023-06-22T02:46:22;20.00;99.90
3919;DHT22;1974;48.670;8.994;2023-06-22T02:48:49;20.00;99.90
3919;DHT22;1974;48.670;8.994;2023-06-22T02:51:16;20.00;99.90
3919;DHT22;1974;48.670;8.994;2023-06-22T02:53:43;20.00;99.90
3919;DHT22;1974;48.670;8.994;2023-06-22T02:56:11;20.00;99.90
3919;DHT22;1974;48.670;8.994;2023-06-22T02:58:38;20.00;99.90
3919;DHT22;1974;48.670;8.994;2023-06-22T03:01:05;20.00;99.90
3919;DHT22;1974;48.670;8.994;2023-06-22T03:03:31;20.00;99.90
3919;DHT22;1974;48.670;8.994;2023-06-22T03:05:58;20.10;99.90
3919;DHT22;1974;48.670;8.994;2023-06-22T03:08:26;20.10;99.90
3919;DHT22;1974;48.670;8.994;2023-06-22T03:10:53;20.10;99.90
3919;DHT22;1974;48.670;8.994;2023-06-22T03:13:21;20.00;99.90
3919;DHT22;1974;48.670;8.994;2023-06-22T03:15:48;20.00;99.90
3919;DHT22;1974;48.670;8.994;2023-06-22T03:18:15;20.00;99.90
3919;DHT22;1974;48.670;8.994;2023-06-22T03:20:42;19.90;99.90
3919;DHT22;1974;48.670;8.994;2023-06-22T03:23:08;19.90;99.90
3919;DHT22;1974;48.670;8.994;2023-06-22T03:25:35;19.90;99.90
3919;DHT22;1974;48.670;8.994;2023-06-22T03:28:02;19.80;99.90
3919;DHT22;1974;48.670;8.994;2023-06-22T03:30:30;19.80;99.90
3919;DHT22;1974;48.670;8.994;2023-06-22T03:32:57;19.80;99.90
3919;DHT22;1974;48.670;8.994;2023-06-22T03:35:24;19.80;99.90
3919;DHT22;1974;48.670;8.994;2023-06-22T03:37:50;19.70;99.90
3919;DHT22;1974;48.670;8.994;2023-06-22T03:40:17;19.70;99.90
3919;DHT22;1974;48.670;8.994;2023-06-22T03:42:44;19.70;99.90
3919;DHT22;1974;48.670;8.994;2023-06-22T03:45:10;19.70;99.90
3919;DHT22;1974;48.670;8.994;2023-06-22T03:47:39;19.70;99.90
3919;DHT22;1974;48.670;8.994;2023-06-22T03:50:06;19.70;99.90
3919;DHT22;1974;48.670;8.994;2023-06-22T03:52:33;19.70;99.90
3919;DHT22;1974;48.670;8.994;2023-06-22T03:55:00;19.70;99.90
3919;DHT22;1974;48.670;8.994;2023-06-22T03:57:26;19.60;99.90
3919;DHT22;1974;48.670;8.994;2023-06-22T03:59:56;19.70;99.90
3919;DHT22;1974;48.670;8.994;2023-06-22T04:02:23;19.60;99.90
3919;DHT22;1974;48.670;8.994;2023-06-22T04:04:51;19.70;99.90
3919;DHT22;1974;48.670;8.994;2023-06-22T04:07:18;19.70;99.90
3919;DHT22;1974;48.670;8.994;2023-06-22T04:09:44;19.70;99.90
3919;DHT22;1974;48.670;8.994;2023-06-22T04:12:11;19.80;99.90
3919;DHT22;1974;48.670;8.994;2023-06-22T04:14:38;19.80;99.90
3919;DHT22;1974;48.670;8.994;2023-06-22T04:17:05;19.80;99.90
3919;DHT22;1974;48.670;8.994;2023-06-22T04:19:31;19.90;99.90
3919;DHT22;1974;48.670;8.994;2023-06-22T04:21:59;20.00;99.90
3919;DHT22;1974;48.670;8.994;2023-06-22T04:24:26;20.00;99.90
3919;DHT22;1974;48.670;8.994;2023-06-22T04:26:53;20.10;99.90
3919;DHT22;1974;48.670;8.994;2023-06-22T04:29:21;20.10;99.90
3919;DHT22;1974;48.670;8.994;2023-06-22T04:31:54;20.10;99.90
3919;DHT22;1974;48.670;8.994;2023-06-22T04:34:23;20.20;99.90
3919;DHT22;1974;48.670;8.994;2023-06-22T04:36:52;20.30;99.90
3919;DHT22;1974;48.670;8.994;2023-06-22T04:39:20;20.30;99.90
3919;DHT22;1974;48.670;8.994;2023-06-22T04:41:47;20.30;99.90
3919;DHT22;1974;48.670;8.994;2023-06-22T04:44:15;20.40;99.90
3919;DHT22;1974;48.670;8.994;2023-06-22T04:46:49;20.50;99.90
3919;DHT22;1974;48.670;8.994;2023-06-22T04:49:20;20.50;99.90
3919;DHT22;1974;48.670;8.994;2023-06-22T04:51:48;20.60;99.90
3919;DHT22;1974;48.670;8.994;2023-06-22T04:54:15;20.70;99.90
3919;DHT22;1974;48.670;8.994;2023-06-22T04:56:43;20.70;99.90
3919;DHT22;1974;48.670;8.994;2023-06-22T04:59:12;20.80;99.90
3919;DHT22;1974;48.670;8.994;2023-06-22T05:01:39;21.10;99.90
3919;DHT22;1974;48.670;8.994;2023-06-22T05:04:06;20.90;99.90
3919;DHT22;1974;48.670;8.994;2023-06-22T05:06:33;21.00;99.90
3919;DHT22;1974;48.670;8.994;2023-06-22T05:09:00;21.00;99.90
3919;DHT22;1974;48.670;8.994;2023-06-22T05:11:27;21.10;99.90
3919;DHT22;1974;48.670;8.994;2023-06-22T05:13:56;21.20;99.90
3919;DHT22;1974;48.670;8.994;2023-06-22T05:16:23;21.30;99.90
3919;DHT22;1974;48.670;8.994;2023-06-22T05:18:51;21.50;99.90
3919;DHT22;1974;48.670;8.994;2023-06-22T05:21:21;21.50;99.90
3919;DHT22;1974;48.670;8.994;2023-06-22T05:23:47;21.70;99.90
3919;DHT22;1974;48.670;8.994;2023-06-22T05:26:14;21.70;99.90
3919;DHT22;1974;48.670;8.994;2023-06-22T05:28:41;21.90;99.90
3919;DHT22;1974;48.670;8.994;2023-06-22T05:31:13;22.00;99.90
3919;DHT22;1974;48.670;8.994;2023-06-22T05:33:40;22.10;99.90
3919;DHT22;1974;48.670;8.994;2023-06-22T05:36:07;22.20;99.90
3919;DHT22;1974;48.670;8.994;2023-06-22T05:38:34;22.30;99.90
3919;DHT22;1974;48.670;8.994;2023-06-22T05:41:01;22.30;99.90
3919;DHT22;1974;48.670;8.994;2023-06-22T05:43:28;22.30;99.90
3919;DHT22;1974;48.670;8.994;2023-06-22T05:45:55;22.30;99.90
3919;DHT22;1974;48.670;8.994;2023-06-22T05:48:23;22.30;99.90
3919;DHT22;1974;48.670;8.994;2023-06-22T05:50:50;22.30;99.90
3919;DHT22;1974;48.670;8.994;2023-06-22T05:53:16;22.40;99.90
3919;DHT22;1974;48.670;8.994;2023-06-22T05:55:43;22.40;99.90
3919;DHT22;1974;48.670;8.994;2023-06-22T05:58:10;22.40;99.90
3919;DHT22;1974;48.670;8.994;2023-06-22T06:00:38;22.30;99.90
3919;DHT22;1974;48.670;8.994;2023-06-22T06:03:06;22.30;99.90
3919;DHT22;1974;48.670;8.994;2023-06-22T06:05:35;22.30;99.90
3919;DHT22;1974;48.670;8.994;2023-06-22T06:08:03;22.40;99.90
3919;DHT22;1974;48.670;8.994;2023-06-22T06:10:31;22.50;99.90
3919;DHT22;1974;48.670;8.994;2023-06-22T06:12:59;22.70;99.90
3919;DHT22;1974;48.670;8.994;2023-06-22T06:15:27;22.80;99.90
3919;DHT22;1974;48.670;8.994;2023-06-22T06:17:54;23.00;99.90
3919;DHT22;1974;48.670;8.994;2023-06-22T06:20:22;23.30;99.90
3919;DHT22;1974;48.670;8.994;2023-06-22T06:22:50;23.50;99.90
3919;DHT22;1974;48.670;8.994;2023-06-22T06:25:17;23.70;99.90
3919;DHT22;1974;48.670;8.994;2023-06-22T06:27:47;24.00;99.90
3919;DHT22;1974;48.670;8.994;2023-06-22T06:30:16;24.30;99.90
3919;DHT22;1974;48.670;8.994;2023-06-22T06:32:44;24.50;99.90
3919;DHT22;1974;48.670;8.994;2023-06-22T06:35:12;24.80;99.90
3919;DHT22;1974;48.670;8.994;2023-06-22T06:37:41;25.10;99.90
3919;DHT22;1974;48.670;8.994;2023-06-22T06:40:11;25.30;99.90
3919;DHT22;1974;48.670;8.994;2023-06-22T06:42:39;25.50;99.90
3919;DHT22;1974;48.670;8.994;2023-06-22T06:45:07;25.90;99.90
3919;DHT22;1974;48.670;8.994;2023-06-22T06:47:34;26.10;99.90
3919;DHT22;1974;48.670;8.994;2023-06-22T06:50:02;26.20;99.90
3919;DHT22;1974;48.670;8.994;2023-06-22T06:52:28;26.30;99.90
3919;DHT22;1974;48.670;8.994;2023-06-22T06:54:55;26.30;99.90
3919;DHT22;1974;48.670;8.994;2023-06-22T06:57:23;26.20;99.90
3919;DHT22;1974;48.670;8.994;2023-06-22T06:59:54;26.30;99.90
3919;DHT22;1974;48.670;8.994;2023-06-22T07:02:21;26.30;99.90
3919;DHT22;1974;48.670;8.994;2023-06-22T07:04:48;26.20;99.90
3919;DHT22;1974;48.670;8.994;2023-06-22T07:07:16;26.30;99.90
3919;DHT22;1974;48.670;8.994;2023-06-22T07:09:43;26.30;99.90
3919;DHT22;1974;48.670;8.994;2023-06-22T07:12:10;26.40;99.90
3919;DHT22;1974;48.670;8.994;2023-06-22T07:14:38;26.40;99.90
3919;DHT22;1974;48.670;8.994;2023-06-22T07:17:04;26.40;99.90
3919;DHT22;1974;48.670;8.994;2023-06-22T07:19:33;26.50;99.90
3919;DHT22;1974;48.670;8.994;2023-06-22T07:22:00;26.50;99.90
3919;DHT22;1974;48.670;8.994;2023-06-22T07:24:27;26.60;99.90
3919;DHT22;1974;48.670;8.994;2023-06-22T07:26:53;26.60;99.90
3919;DHT22;1974;48.670;8.994;2023-06-22T07:29:20;26.60;99.90
3919;DHT22;1974;48.670;8.994;2023-06-22T07:31:50;26.70;99.90
3919;DHT22;1974;48.670;8.994;2023-06-22T07:34:17;26.80;99.90
3919;DHT22;1974;48.670;8.994;2023-06-22T07:36:43;26.80;99.90
3919;DHT22;1974;48.670;8.994;2023-06-22T07:39:10;27.10;99.90
3919;DHT22;1974;48.670;8.994;2023-06-22T07:41:39;27.20;99.90
3919;DHT22;1974;48.670;8.994;2023-06-22T07:44:06;27.30;99.90
3919;DHT22;1974;48.670;8.994;2023-06-22T07:46:33;27.40;99.90
3919;DHT22;1974;48.670;8.994;2023-06-22T07:49:02;27.50;99.90
3919;DHT22;1974;48.670;8.994;2023-06-22T07:51:28;27.60;99.90
3919;DHT22;1974;48.670;8.994;2023-06-22T07:53:55;27.50;99.90
3919;DHT22;1974;48.670;8.994;2023-06-22T07:56:22;27.40;99.90
3919;DHT22;1974;48.670;8.994;2023-06-22T07:58:49;27.60;99.90
3919;DHT22;1974;48.670;8.994;2023-06-22T08:01:16;27.80;99.90
3919;DHT22;1974;48.670;8.994;2023-06-22T08:03:44;28.10;99.90
3919;DHT22;1974;48.670;8.994;2023-06-22T08:06:13;28.20;99.90
3919;DHT22;1974;48.670;8.994;2023-06-22T08:08:39;28.40;99.90
3919;DHT22;1974;48.670;8.994;2023-06-22T08:11:08;28.80;99.90
3919;DHT22;1974;48.670;8.994;2023-06-22T08:13:35;28.90;99.90
3919;DHT22;1974;48.670;8.994;2023-06-22T08:16:02;28.90;99.90
3919;DHT22;1974;48.670;8.994;2023-06-22T08:18:29;29.00;99.90
3919;DHT22;1974;48.670;8.994;2023-06-22T08:20:55;29.00;99.90
3919;DHT22;1974;48.670;8.994;2023-06-22T08:23:23;28.90;99.90
3919;DHT22;1974;48.670;8.994;2023-06-22T08:25:50;28.70;99.90
3919;DHT22;1974;48.670;8.994;2023-06-22T08:28:17;28.70;99.90
3919;DHT22;1974;48.670;8.994;2023-06-22T08:30:44;28.90;99.90
3919;DHT22;1974;48.670;8.994;2023-06-22T08:33:10;28.90;99.90
3919;DHT22;1974;48.670;8.994;2023-06-22T08:35:38;28.80;99.90
3919;DHT22;1974;48.670;8.994;2023-06-22T08:38:05;28.50;99.90
3919;DHT22;1974;48.670;8.994;2023-06-22T08:40:33;28.60;99.90
3919;DHT22;1974;48.670;8.994;2023-06-22T08:42:59;28.60;99.90
3919;DHT22;1974;48.670;8.994;2023-06-22T08:45:26;28.40;99.90
3919;DHT22;1974;48.670;8.994;2023-06-22T08:47:53;28.00;99.90
3919;DHT22;1974;48.670;8.994;2023-06-22T08:50:19;28.00;99.90
3919;DHT22;1974;48.670;8.994;2023-06-22T08:52:46;28.00;99.90
3919;DHT22;1974;48.670;8.994;2023-06-22T08:55:13;28.10;99.90
3919;DHT22;1974;48.670;8.994;2023-06-22T08:57:41;28.60;99.90
3919;DHT22;1974;48.670;8.994;2023-06-22T09:00:10;29.30;99.90
3919;DHT22;1974;48.670;8.994;2023-06-22T09:02:43;29.40;99.90
3919;DHT22;1974;48.670;8.994;2023-06-22T09:05:10;29.20;99.90
3919;DHT22;1974;48.670;8.994;2023-06-22T09:07:37;29.00;99.90
3919;DHT22;1974;48.670;8.994;2023-06-22T09:10:05;29.00;99.90
3919;DHT22;1974;48.670;8.994;2023-06-22T09:12:32;28.90;99.90
3919;DHT22;1974;48.670;8.994;2023-06-22T09:15:00;29.10;99.90
3919;DHT22;1974;48.670;8.994;2023-06-22T09:17:28;29.20;99.90
3919;DHT22;1974;48.670;8.994;2023-06-22T09:19:54;29.40;99.90
3919;DHT22;1974;48.670;8.994;2023-06-22T09:22:21;29.60;99.90
3919;DHT22;1974;48.670;8.994;2023-06-22T09:24:48;29.70;99.90
3919;DHT22;1974;48.670;8.994;2023-06-22T09:27:15;29.60;99.90
3919;DHT22;1974;48.670;8.994;2023-06-22T09:29:41;29.50;99.90
3919;DHT22;1974;48.670;8.994;2023-06-22T09:32:10;29.60;99.90
3919;DHT22;1974;48.670;8.994;2023-06-22T09:34:36;29.70;99.90
3919;DHT22;1974;48.670;8.994;2023-06-22T09:37:03;29.70;99.90
3919;DHT22;1974;48.670;8.994;2023-06-22T09:39:30;29.70;99.90
3919;DHT22;1974;48.670;8.994;2023-06-22T09:41:59;29.80;99.90
3919;DHT22;1974;48.670;8.994;2023-06-22T09:44:26;29.90;99.90
3919;DHT22;1974;48.670;8.994;2023-06-22T09:46:53;29.70;99.90
3919;DHT22;1974;48.670;8.994;2023-06-22T09:49:21;29.70;99.90
3919;DHT22;1974;48.670;8.994;2023-06-22T09:51:47;29.70;99.90
3919;DHT22;1974;48.670;8.994;2023-06-22T09:54:15;29.90;99.90
3919;DHT22;1974;48.670;8.994;2023-06-22T09:56:41;30.00;99.90
3919;DHT22;1974;48.670;8.994;2023-06-22T09:59:08;29.90;99.90
3919;DHT22;1974;48.670;8.994;2023-06-22T10:01:35;29.80;99.90
3919;DHT22;1974;48.670;8.994;2023-06-22T10:04:02;29.70;99.90
3919;DHT22;1974;48.670;8.994;2023-06-22T10:06:30;29.60;99.90
3919;DHT22;1974;48.670;8.994;2023-06-22T10:08:57;29.60;99.90
3919;DHT22;1974;48.670;8.994;2023-06-22T10:11:23;29.60;99.90
3919;DHT22;1974;48.670;8.994;2023-06-22T10:13:54;29.70;99.90
3919;DHT22;1974;48.670;8.994;2023-06-22T10:16:21;29.70;99.90
3919;DHT22;1974;48.670;8.994;2023-06-22T10:18:48;29.80;99.90
3919;DHT22;1974;48.670;8.994;2023-06-22T10:21:14;29.90;99.90
3919;DHT22;1974;48.670;8.994;2023-06-22T10:23:43;29.90;99.90
3919;DHT22;1974;48.670;8.994;2023-06-22T10:26:09;30.00;99.90
3919;DHT22;1974;48.670;8.994;2023-06-22T10:28:36;30.20;99.90
3919;DHT22;1974;48.670;8.994;2023-06-22T10:31:03;30.10;99.90
3919;DHT22;1974;48.670;8.994;2023-06-22T10:33:29;30.20;99.90
3919;DHT22;1974;48.670;8.994;2023-06-22T10:35:56;30.30;99.90
3919;DHT22;1974;48.670;8.994;2023-06-22T10:38:23;30.50;99.90
3919;DHT22;1974;48.670;8.994;2023-06-22T10:40:51;30.60;99.90
3919;DHT22;1974;48.670;8.994;2023-06-22T10:43:18;30.60;99.90
3919;DHT22;1974;48.670;8.994;2023-06-22T10:45:45;30.40;99.90
3919;DHT22;1974;48.670;8.994;2023-06-22T10:48:12;30.20;99.90
3919;DHT22;1974;48.670;8.994;2023-06-22T10:50:38;30.20;99.90
3919;DHT22;1974;48.670;8.994;2023-06-22T10:53:05;30.20;99.90
3919;DHT22;1974;48.670;8.994;2023-06-22T10:55:32;30.20;99.90
3919;DHT22;1974;48.670;8.994;2023-06-22T10:58:00;30.10;99.90
3919;DHT22;1974;48.670;8.994;2023-06-22T11:00:27;30.00;99.90
3919;DHT22;1974;48.670;8.994;2023-06-22T11:02:53;30.00;99.90
3919;DHT22;1974;48.670;8.994;2023-06-22T11:05:20;30.00;99.90
3919;DHT22;1974;48.670;8.994;2023-06-22T11:07:47;30.00;99.90
3919;DHT22;1974;48.670;8.994;2023-06-22T11:10:15;29.90;99.90
3919;DHT22;1974;48.670;8.994;2023-06-22T11:12:42;29.80;99.90
3919;DHT22;1974;48.670;8.994;2023-06-22T11:15:10;29.90;99.90
3919;DHT22;1974;48.670;8.994;2023-06-22T11:17:37;29.90;99.90
3919;DHT22;1974;48.670;8.994;2023-06-22T11:20:05;29.80;99.90
3919;DHT22;1974;48.670;8.994;2023-06-22T11:22:36;29.70;99.90
3919;DHT22;1974;48.670;8.994;2023-06-22T11:25:03;29.60;99.90
3919;DHT22;1974;48.670;8.994;2023-06-22T11:27:30;29.60;99.90
3919;DHT22;1974;48.670;8.994;2023-06-22T11:29:57;29.70;99.90
3919;DHT22;1974;48.670;8.994;2023-06-22T11:32:26;29.80;99.90
3919;DHT22;1974;48.670;8.994;2023-06-22T11:34:52;29.90;99.90
3919;DHT22;1974;48.670;8.994;2023-06-22T11:37:19;29.90;99.90
3919;DHT22;1974;48.670;8.994;2023-06-22T11:39:46;29.90;99.90
3919;DHT22;1974;48.670;8.994;2023-06-22T11:42:13;30.00;99.90
3919;DHT22;1974;48.670;8.994;2023-06-22T11:44:39;29.90;99.90
3919;DHT22;1974;48.670;8.994;2023-06-22T11:47:06;29.90;99.90
3919;DHT22;1974;48.670;8.994;2023-06-22T11:49:34;29.70;99.90
3919;DHT22;1974;48.670;8.994;2023-06-22T11:52:01;29.60;99.90
3919;DHT22;1974;48.670;8.994;2023-06-22T11:54:28;29.50;99.90
3919;DHT22;1974;48.670;8.994;2023-06-22T11:56:54;29.60;99.90
3919;DHT22;1974;48.670;8.994;2023-06-22T11:59:21;29.40;99.90
3919;DHT22;1974;48.670;8.994;2023-06-22T12:01:48;29.30;99.90
3919;DHT22;1974;48.670;8.994;2023-06-22T12:04:16;29.30;99.90
3919;DHT22;1974;48.670;8.994;2023-06-22T12:06:44;29.30;99.90
3919;DHT22;1974;48.670;8.994;2023-06-22T12:09:11;29.10;99.90
3919;DHT22;1974;48.670;8.994;2023-06-22T12:11:39;29.10;99.90
3919;DHT22;1974;48.670;8.994;2023-06-22T12:14:05;29.10;99.90
3919;DHT22;1974;48.670;8.994;2023-06-22T12:16:33;29.20;99.90
3919;DHT22;1974;48.670;8.994;2023-06-22T12:18:59;29.20;99.90
3919;DHT22;1974;48.670;8.994;2023-06-22T12:21:26;29.30;99.90
3919;DHT22;1974;48.670;8.994;2023-06-22T12:23:55;29.30;99.90
3919;DHT22;1974;48.670;8.994;2023-06-22T12:26:22;29.20;99.90
3919;DHT22;1974;48.670;8.994;2023-06-22T12:28:49;29.10;99.90
3919;DHT22;1974;48.670;8.994;2023-06-22T12:31:15;28.90;99.90
3919;DHT22;1974;48.670;8.994;2023-06-22T12:33:42;28.90;99.90
3919;DHT22;1974;48.670;8.994;2023-06-22T12:36:09;28.80;99.90
3919;DHT22;1974;48.670;8.994;2023-06-22T12:38:36;28.80;99.90
3919;DHT22;1974;48.670;8.994;2023-06-22T12:41:04;28.80;99.90
3919;DHT22;1974;48.670;8.994;2023-06-22T12:43:30;28.80;99.90
3919;DHT22;1974;48.670;8.994;2023-06-22T12:45:57;28.80;99.90
3919;DHT22;1974;48.670;8.994;2023-06-22T12:48:25;28.90;99.90
3919;DHT22;1974;48.670;8.994;2023-06-22T12:50:52;28.80;99.90
3919;DHT22;1974;48.670;8.994;2023-06-22T12:53:19;28.70;99.90
3919;DHT22;1974;48.670;8.994;2023-06-22T12:55:48;28.60;99.90
3919;DHT22;1974;48.670;8.994;2023-06-22T12:58:16;28.50;99.90
3919;DHT22;1974;48.670;8.994;2023-06-22T13:00:43;28.40;99.90
3919;DHT22;1974;48.670;8.994;2023-06-22T13:03:10;28.20;99.90
3919;DHT22;1974;48.670;8.994;2023-06-22T13:05:36;28.00;99.90
3919;DHT22;1974;48.670;8.994;2023-06-22T13:08:03;27.90;99.90
3919;DHT22;1974;48.670;8.994;2023-06-22T13:10:30;27.80;99.90
3919;DHT22;1974;48.670;8.994;2023-06-22T13:12:57;27.80;99.90
3919;DHT22;1974;48.670;8.994;2023-06-22T13:15:27;27.80;99.90
3919;DHT22;1974;48.670;8.994;2023-06-22T13:17:55;28.00;99.90
3919;DHT22;1974;48.670;8.994;2023-06-22T13:20:22;28.10;99.90
3919;DHT22;1974;48.670;8.994;2023-06-22T13:22:48;28.30;99.90
3919;DHT22;1974;48.670;8.994;2023-06-22T13:25:15;28.40;99.90
3919;DHT22;1974;48.670;8.994;2023-06-22T13:27:44;28.50;99.90
3919;DHT22;1974;48.670;8.994;2023-06-22T13:30:11;28.60;99.90
3919;DHT22;1974;48.670;8.994;2023-06-22T13:32:39;28.70;99.90
3919;DHT22;1974;48.670;8.994;2023-06-22T13:35:08;28.70;99.90
3919;DHT22;1974;48.670;8.994;2023-06-22T13:37:34;28.70;99.90
3919;DHT22;1974;48.670;8.994;2023-06-22T13:40:01;28.80;99.90
3919;DHT22;1974;48.670;8.994;2023-06-22T13:42:30;28.80;99.90
3919;DHT22;1974;48.670;8.994;2023-06-22T13:44:57;28.80;99.90
3919;DHT22;1974;48.670;8.994;2023-06-22T13:47:24;28.80;99.90
3919;DHT22;1974;48.670;8.994;2023-06-22T13:49:52;28.70;99.90
3919;DHT22;1974;48.670;8.994;2023-06-22T13:52:18;28.70;99.90
3919;DHT22;1974;48.670;8.994;2023-06-22T13:54:45;28.70;99.90
3919;DHT22;1974;48.670;8.994;2023-06-22T13:57:12;28.80;99.90
3919;DHT22;1974;48.670;8.994;2023-06-22T13:59:39;28.80;99.90
3919;DHT22;1974;48.670;8.994;2023-06-22T14:02:06;28.80;99.90
3919;DHT22;1974;48.670;8.994;2023-06-22T14:04:33;28.90;99.90
3919;DHT22;1974;48.670;8.994;2023-06-22T14:07:01;28.90;99.90
3919;DHT22;1974;48.670;8.994;2023-06-22T14:09:27;29.00;99.90
3919;DHT22;1974;48.670;8.994;2023-06-22T14:11:54;29.00;99.90
3919;DHT22;1974;48.670;8.994;2023-06-22T14:14:22;29.10;99.90
3919;DHT22;1974;48.670;8.994;2023-06-22T14:16:48;29.00;99.90
3919;DHT22;1974;48.670;8.994;2023-06-22T14:19:17;29.10;99.90
3919;DHT22;1974;48.670;8.994;2023-06-22T14:21:43;29.10;99.90
3919;DHT22;1974;48.670;8.994;2023-06-22T14:24:11;29.10;99.90
3919;DHT22;1974;48.670;8.994;2023-06-22T14:26:38;29.20;99.90
3919;DHT22;1974;48.670;8.994;2023-06-22T14:29:05;29.20;99.90
3919;DHT22;1974;48.670;8.994;2023-06-22T14:31:32;29.30;99.90
3919;DHT22;1974;48.670;8.994;2023-06-22T14:34:00;29.30;99.90
3919;DHT22;1974;48.670;8.994;2023-06-22T14:36:28;29.30;99.90
3919;DHT22;1974;48.670;8.994;2023-06-22T14:38:54;29.30;99.90
3919;DHT22;1974;48.670;8.994;2023-06-22T14:41:23;29.30;99.00
3919;DHT22;1974;48.670;8.994;2023-06-22T14:43:50;29.30;98.10
3919;DHT22;1974;48.670;8.994;2023-06-22T14:46:18;29.30;97.20
3919;DHT22;1974;48.670;8.994;2023-06-22T14:48:45;29.30;97.10
3919;DHT22;1974;48.670;8.994;2023-06-22T14:51:12;29.30;96.60
3919;DHT22;1974;48.670;8.994;2023-06-22T14:53:39;29.30;96.00
3919;DHT22;1974;48.670;8.994;2023-06-22T14:56:06;29.20;95.70
3919;DHT22;1974;48.670;8.994;2023-06-22T14:58:34;29.20;95.90
3919;DHT22;1974;48.670;8.994;2023-06-22T15:01:02;29.20;96.10
3919;DHT22;1974;48.670;8.994;2023-06-22T15:03:30;29.10;95.70
3919;DHT22;1974;48.670;8.994;2023-06-22T15:05:57;29.10;96.10
3919;DHT22;1974;48.670;8.994;2023-06-22T15:08:25;29.20;96.00
3919;DHT22;1974;48.670;8.994;2023-06-22T15:10:52;29.20;95.30
3919;DHT22;1974;48.670;8.994;2023-06-22T15:13:19;29.20;95.50
3919;DHT22;1974;48.670;8.994;2023-06-22T15:15:47;29.20;93.90
3919;DHT22;1974;48.670;8.994;2023-06-22T15:18:14;29.20;94.00
3919;DHT22;1974;48.670;8.994;2023-06-22T15:20:42;29.20;93.50
3919;DHT22;1974;48.670;8.994;2023-06-22T15:23:10;29.10;92.80
3919;DHT22;1974;48.670;8.994;2023-06-22T15:25:37;29.10;92.90
3919;DHT22;1974;48.670;8.994;2023-06-22T15:28:03;29.10;94.10
3919;DHT22;1974;48.670;8.994;2023-06-22T15:30:30;29.10;94.50
3919;DHT22;1974;48.670;8.994;2023-06-22T15:32:58;29.00;94.00
3919;DHT22;1974;48.670;8.994;2023-06-22T15:35:25;28.90;93.80
3919;DHT22;1974;48.670;8.994;2023-06-22T15:37:52;29.00;93.80
3919;DHT22;1974;48.670;8.994;2023-06-22T15:40:18;28.80;94.10
3919;DHT22;1974;48.670;8.994;2023-06-22T15:42:45;28.80;93.70
3919;DHT22;1974;48.670;8.994;2023-06-22T15:45:13;28.90;94.40
3919;DHT22;1974;48.670;8.994;2023-06-22T15:47:39;28.90;94.10
3919;DHT22;1974;48.670;8.994;2023-06-22T15:50:08;28.80;94.30
3919;DHT22;1974;48.670;8.994;2023-06-22T15:52:35;28.80;94.10
3919;DHT22;1974;48.670;8.994;2023-06-22T15:55:02;28.70;94.80
3919;DHT22;1974;48.670;8.994;2023-06-22T15:57:29;28.60;94.70
3919;DHT22;1974;48.670;8.994;2023-06-22T15:59:56;28.50;94.90
3919;DHT22;1974;48.670;8.994;2023-06-22T16:02:23;28.40;95.00